sensor_id;sensor_type;location;lat;lon;timestamp;temperature;humidity
9383;DHT22;4731;49.708;10.816;2023-05-18T00:00:13;5.80;99.90
9383;DHT22;4731;49.708;10.816;2023-05-18T00:02:40;5.80;99.90
9383;DHT22;4731;49.708;10.816;2023-05-18T00:05:07;5.80;99.90
9383;DHT22;4731;49.708;10.816;2023-05-18T00:07:34;5.70;99.90
9383;DHT22;4731;49.708;10.816;2023-05-18T00:10:02;5.70;99.90
9383;DHT22;4731;49.708;10.816;2023-05-18T00:12:30;5.60;99.90
9383;DHT22;4731;49.708;10.816;2023-05-18T00:14:57;5.60;99.90
9383;DHT22;4731;49.708;10.816;2023-05-18T00:17:23;5.60;99.90
9383;DHT22;4731;49.708;10.816;2023-05-18T00:19:50;5.50;99.90
9383;DHT22;4731;49.708;10.816;2023-05-18T00:22:17;5.60;99.90
9383;DHT22;4731;49.708;10.816;2023-05-18T00:24:44;5.40;99.90
9383;DHT22;4731;49.708;10.816;2023-05-18T00:27:11;5.40;99.90
9383;DHT22;4731;49.708;10.816;2023-05-18T00:29:40;5.30;99.90
9383;DHT22;4731;49.708;10.816;2023-05-18T00:32:06;5.30;99.90
9383;DHT22;4731;49.708;10.816;2023-05-18T00:34:33;5.30;99.90
9383;DHT22;4731;49.708;10.816;2023-05-18T00:37:00;5.30;99.90
9383;DHT22;4731;49.708;10.816;2023-05-18T00:39:27;5.20;99.90
9383;DHT22;4731;49.708;10.816;2023-05-18T00:41:53;5.20;99.90
9383;DHT22;4731;49.708;10.816;2023-05-18T00:44:20;5.20;99.90
9383;DHT22;4731;49.708;10.816;2023-05-18T00:46:48;5.10;99.90
9383;DHT22;4731;49.708;10.816;2023-05-18T00:49:15;5.10;99.90
9383;DHT22;4731;49.708;10.816;2023-05-18T00:51:43;5.10;99.90
9383;DHT22;4731;49.708;10.816;2023-05-18T00:54:10;5.10;99.90
9383;DHT22;4731;49.708;10.816;2023-05-18T00:56:37;5.10;99.90
9383;DHT22;4731;49.708;10.816;2023-05-18T00:59:06;5.10;99.90
9383;DHT22;4731;49.708;10.816;2023-05-18T01:01:33;5.00;99.90
9383;DHT22;4731;49.708;10.816;2023-05-18T01:04:02;5.10;99.90
9383;DHT22;4731;49.708;10.816;2023-05-18T01:06:29;7.10;99.90
9383;DHT22;4731;49.708;10.816;2023-05-18T01:09:00;5.10;99.90
9383;DHT22;4731;49.708;10.816;2023-05-18T01:11:35;5.00;99.90
9383;DHT22;4731;49.708;10.816;2023-05-18T01:14:08;5.00;99.90
9383;DHT22;4731;49.708;10.816;2023-05-18T01:16:41;4.90;99.90
9383;DHT22;4731;49.708;10.816;2023-05-18T01:19:29;5.00;99.90
9383;DHT22;4731;49.708;10.816;2023-05-18T01:22:06;5.00;99.90
9383;DHT22;4731;49.708;10.816;2023-05-18T01:24:41;5.00;99.90
9383;DHT22;4731;49.708;10.816;2023-05-18T01:27:13;4.90;99.90
9383;DHT22;4731;49.708;10.816;2023-05-18T01:29:41;4.90;99.90
9383;DHT22;4731;49.708;10.816;2023-05-18T01:32:09;4.90;99.90
9383;DHT22;4731;49.708;10.816;2023-05-18T01:34:42;4.90;99.90
9383;DHT22;4731;49.708;10.816;2023-05-18T01:37:09;4.90;99.90
9383;DHT22;4731;49.708;10.816;2023-05-18T01:39:36;4.90;99.90
9383;DHT22;4731;49.708;10.816;2023-05-18T01:42:07;4.90;99.90
9383;DHT22;4731;49.708;10.816;2023-05-18T01:44:40;4.90;99.90
9383;DHT22;4731;49.708;10.816;2023-05-18T01:47:11;4.90;99.90
9383;DHT22;4731;49.708;10.816;2023-05-18T01:49:44;4.90;99.90
9383;DHT22;4731;49.708;10.816;2023-05-18T01:52:17;7.40;99.90
9383;DHT22;4731;49.708;10.816;2023-05-18T01:54:49;4.80;99.90
9383;DHT22;4731;49.708;10.816;2023-05-18T01:57:20;4.80;99.90
9383;DHT22;4731;49.708;10.816;2023-05-18T01:59:50;4.80;99.90
9383;DHT22;4731;49.708;10.816;2023-05-18T02:02:18;4.80;99.90
9383;DHT22;4731;49.708;10.816;2023-05-18T02:04:45;4.70;99.90
9383;DHT22;4731;49.708;10.816;2023-05-18T02:07:13;4.80;99.90
9383;DHT22;4731;49.708;10.816;2023-05-18T02:09:40;4.80;99.90
9383;DHT22;4731;49.708;10.816;2023-05-18T02:12:08;4.80;99.90
9383;DHT22;4731;49.708;10.816;2023-05-18T02:14:35;4.70;99.90
9383;DHT22;4731;49.708;10.816;2023-05-18T02:17:03;4.70;99.90
9383;DHT22;4731;49.708;10.816;2023-05-18T02:19:31;5.00;99.90
9383;DHT22;4731;49.708;10.816;2023-05-18T02:21:58;4.70;99.90
9383;DHT22;4731;49.708;10.816;2023-05-18T02:24:25;4.60;99.90
9383;DHT22;4731;49.708;10.816;2023-05-18T02:26:52;4.60;99.90
9383;DHT22;4731;49.708;10.816;2023-05-18T02:29:19;4.60;99.90
9383;DHT22;4731;49.708;10.816;2023-05-18T02:31:45;4.60;99.90
9383;DHT22;4731;49.708;10.816;2023-05-18T02:34:13;4.50;99.90
9383;DHT22;4731;49.708;10.816;2023-05-18T02:36:41;4.60;99.90
9383;DHT22;4731;49.708;10.816;2023-05-18T02:39:08;4.50;99.90
9383;DHT22;4731;49.708;10.816;2023-05-18T02:41:35;4.50;99.90
9383;DHT22;4731;49.708;10.816;2023-05-18T02:44:02;4.50;99.90
9383;DHT22;4731;49.708;10.816;2023-05-18T02:46:30;4.50;99.90
9383;DHT22;4731;49.708;10.816;2023-05-18T02:48:57;4.50;99.90
9383;DHT22;4731;49.708;10.816;2023-05-18T02:51:25;4.50;99.90
9383;DHT22;4731;49.708;10.816;2023-05-18T02:53:52;4.40;99.90
9383;DHT22;4731;49.708;10.816;2023-05-18T02:56:19;4.40;99.90
9383;DHT22;4731;49.708;10.816;2023-05-18T02:58:45;4.40;99.90
9383;DHT22;4731;49.708;10.816;2023-05-18T03:01:12;4.40;99.90
9383;DHT22;4731;49.708;10.816;2023-05-18T03:03:39;4.40;99.90
9383;DHT22;4731;49.708;10.816;2023-05-18T03:06:07;4.40;99.90
9383;DHT22;4731;49.708;10.816;2023-05-18T03:08:35;4.40;99.90
9383;DHT22;4731;49.708;10.816;2023-05-18T03:11:03;4.30;99.90
9383;DHT22;4731;49.708;10.816;2023-05-18T03:13:29;4.30;99.90
9383;DHT22;4731;49.708;10.816;2023-05-18T03:15:56;4.30;99.90
9383;DHT22;4731;49.708;10.816;2023-05-18T03:18:23;4.30;99.90
9383;DHT22;4731;49.708;10.816;2023-05-18T03:20:50;4.20;99.90
9383;DHT22;4731;49.708;10.816;2023-05-18T03:23:17;4.20;99.90
9383;DHT22;4731;49.708;10.816;2023-05-18T03:25:45;4.20;99.90
9383;DHT22;4731;49.708;10.816;2023-05-18T03:28:18;4.20;99.90
9383;DHT22;4731;49.708;10.816;2023-05-18T03:30:44;4.20;99.90
9383;DHT22;4731;49.708;10.816;2023-05-18T03:33:11;4.10;99.90
9383;DHT22;4731;49.708;10.816;2023-05-18T03:35:38;4.10;99.90
9383;DHT22;4731;49.708;10.816;2023-05-18T03:38:05;4.20;99.90
9383;DHT22;4731;49.708;10.816;2023-05-18T03:40:32;4.20;99.90
9383;DHT22;4731;49.708;10.816;2023-05-18T03:43:00;4.20;99.90
9383;DHT22;4731;49.708;10.816;2023-05-18T03:45:26;4.20;99.90
9383;DHT22;4731;49.708;10.816;2023-05-18T03:47:53;4.20;99.90
9383;DHT22;4731;49.708;10.816;2023-05-18T03:50:20;4.30;99.90
9383;DHT22;4731;49.708;10.816;2023-05-18T03:52:46;4.30;99.90
9383;DHT22;4731;49.708;10.816;2023-05-18T03:55:13;4.30;99.90
9383;DHT22;4731;49.708;10.816;2023-05-18T03:57:40;4.30;99.90
9383;DHT22;4731;49.708;10.816;2023-05-18T04:00:09;5.80;99.90
9383;DHT22;4731;49.708;10.816;2023-05-18T04:02:37;4.40;99.90
9383;DHT22;4731;49.708;10.816;2023-05-18T04:05:04;4.50;99.90
9383;DHT22;4731;49.708;10.816;2023-05-18T04:07:31;4.50;99.90
9383;DHT22;4731;49.708;10.816;2023-05-18T04:09:58;4.50;99.90
9383;DHT22;4731;49.708;10.816;2023-05-18T04:12:25;4.60;99.90
9383;DHT22;4731;49.708;10.816;2023-05-18T04:14:51;4.70;99.90
9383;DHT22;4731;49.708;10.816;2023-05-18T04:17:20;4.80;99.90
9383;DHT22;4731;49.708;10.816;2023-05-18T04:19:47;4.90;99.90
9383;DHT22;4731;49.708;10.816;2023-05-18T04:22:14;4.90;99.90
9383;DHT22;4731;49.708;10.816;2023-05-18T04:24:41;5.00;99.90
9383;DHT22;4731;49.708;10.816;2023-05-18T04:27:10;5.00;99.90
9383;DHT22;4731;49.708;10.816;2023-05-18T04:29:37;5.20;99.90
9383;DHT22;4731;49.708;10.816;2023-05-18T04:32:05;5.30;99.90
9383;DHT22;4731;49.708;10.816;2023-05-18T04:34:34;5.40;99.90
9383;DHT22;4731;49.708;10.816;2023-05-18T04:37:01;5.50;99.90
9383;DHT22;4731;49.708;10.816;2023-05-18T04:39:30;5.70;99.90
9383;DHT22;4731;49.708;10.816;2023-05-18T04:41:57;5.80;99.90
9383;DHT22;4731;49.708;10.816;2023-05-18T04:44:24;5.90;99.90
9383;DHT22;4731;49.708;10.816;2023-05-18T04:46:51;6.10;99.90
9383;DHT22;4731;49.708;10.816;2023-05-18T04:49:18;6.30;99.90
9383;DHT22;4731;49.708;10.816;2023-05-18T04:51:47;6.40;99.90
9383;DHT22;4731;49.708;10.816;2023-05-18T04:54:20;6.60;99.90
9383;DHT22;4731;49.708;10.816;2023-05-18T04:56:48;6.70;99.90
9383;DHT22;4731;49.708;10.816;2023-05-18T04:59:15;6.90;99.90
9383;DHT22;4731;49.708;10.816;2023-05-18T05:01:42;6.90;99.90
9383;DHT22;4731;49.708;10.816;2023-05-18T05:04:09;7.10;99.90
9383;DHT22;4731;49.708;10.816;2023-05-18T05:06:36;7.30;99.90
9383;DHT22;4731;49.708;10.816;2023-05-18T05:09:04;7.40;99.90
9383;DHT22;4731;49.708;10.816;2023-05-18T05:11:31;7.50;99.90
9383;DHT22;4731;49.708;10.816;2023-05-18T05:14:00;7.70;99.90
9383;DHT22;4731;49.708;10.816;2023-05-18T05:16:27;7.80;99.90
9383;DHT22;4731;49.708;10.816;2023-05-18T05:18:53;8.00;99.90
9383;DHT22;4731;49.708;10.816;2023-05-18T05:21:20;8.10;99.90
9383;DHT22;4731;49.708;10.816;2023-05-18T05:23:46;8.30;99.90
9383;DHT22;4731;49.708;10.816;2023-05-18T05:26:15;8.40;99.90
9383;DHT22;4731;49.708;10.816;2023-05-18T05:28:41;8.60;99.90
9383;DHT22;4731;49.708;10.816;2023-05-18T05:31:08;8.70;99.90
9383;DHT22;4731;49.708;10.816;2023-05-18T05:33:35;8.80;99.90
9383;DHT22;4731;49.708;10.816;2023-05-18T05:36:02;9.00;99.90
9383;DHT22;4731;49.708;10.816;2023-05-18T05:38:29;9.10;99.90
9383;DHT22;4731;49.708;10.816;2023-05-18T05:40:56;9.10;99.90
9383;DHT22;4731;49.708;10.816;2023-05-18T05:43:24;9.30;99.90
9383;DHT22;4731;49.708;10.816;2023-05-18T05:45:51;9.30;99.90
9383;DHT22;4731;49.708;10.816;2023-05-18T05:48:17;9.50;99.90
9383;DHT22;4731;49.708;10.816;2023-05-18T05:50:44;9.60;99.90
9383;DHT22;4731;49.708;10.816;2023-05-18T05:53:11;9.70;99.90
9383;DHT22;4731;49.708;10.816;2023-05-18T05:55:37;9.80;99.90
9383;DHT22;4731;49.708;10.816;2023-05-18T05:58:06;9.80;99.90
9383;DHT22;4731;49.708;10.816;2023-05-18T06:00:34;10.10;99.90
9383;DHT22;4731;49.708;10.816;2023-05-18T06:03:01;10.30;99.90
9383;DHT22;4731;49.708;10.816;2023-05-18T06:05:28;10.40;99.90
9383;DHT22;4731;49.708;10.816;2023-05-18T06:07:55;10.60;99.90
9383;DHT22;4731;49.708;10.816;2023-05-18T06:10:22;10.60;99.90
9383;DHT22;4731;49.708;10.816;2023-05-18T06:12:48;10.00;99.90
9383;DHT22;4731;49.708;10.816;2023-05-18T06:15:15;10.90;99.90
9383;DHT22;4731;49.708;10.816;2023-05-18T06:17:43;11.10;99.90
9383;DHT22;4731;49.708;10.816;2023-05-18T06:20:11;11.20;99.90
9383;DHT22;4731;49.708;10.816;2023-05-18T06:22:38;11.30;99.90
9383;DHT22;4731;49.708;10.816;2023-05-18T06:25:05;11.30;99.90
9383;DHT22;4731;49.708;10.816;2023-05-18T06:27:32;11.40;99.90
9383;DHT22;4731;49.708;10.816;2023-05-18T06:29:59;11.40;99.90
9383;DHT22;4731;49.708;10.816;2023-05-18T06:32:26;11.60;99.90
9383;DHT22;4731;49.708;10.816;2023-05-18T06:34:54;11.80;99.90
9383;DHT22;4731;49.708;10.816;2023-05-18T06:37:20;12.00;99.90
9383;DHT22;4731;49.708;10.816;2023-05-18T06:39:47;12.10;99.90
9383;DHT22;4731;49.708;10.816;2023-05-18T06:42:14;12.30;99.90
9383;DHT22;4731;49.708;10.816;2023-05-18T06:44:41;12.40;99.90
9383;DHT22;4731;49.708;10.816;2023-05-18T06:47:07;12.60;99.90
9383;DHT22;4731;49.708;10.816;2023-05-18T06:49:34;12.80;99.90
9383;DHT22;4731;49.708;10.816;2023-05-18T06:52:03;13.10;99.90
9383;DHT22;4731;49.708;10.816;2023-05-18T06:54:29;13.40;99.90
9383;DHT22;4731;49.708;10.816;2023-05-18T06:56:56;13.60;99.90
9383;DHT22;4731;49.708;10.816;2023-05-18T06:59:23;13.50;99.90
9383;DHT22;4731;49.708;10.816;2023-05-18T07:01:50;13.60;99.90
9383;DHT22;4731;49.708;10.816;2023-05-18T07:04:17;13.90;99.90
9383;DHT22;4731;49.708;10.816;2023-05-18T07:06:44;14.00;99.90
9383;DHT22;4731;49.708;10.816;2023-05-18T07:09:12;14.00;99.90
9383;DHT22;4731;49.708;10.816;2023-05-18T07:11:39;14.10;99.90
9383;DHT22;4731;49.708;10.816;2023-05-18T07:14:06;14.00;99.90
9383;DHT22;4731;49.708;10.816;2023-05-18T07:16:32;14.20;99.90
9383;DHT22;4731;49.708;10.816;2023-05-18T07:18:59;13.90;99.90
9383;DHT22;4731;49.708;10.816;2023-05-18T07:21:26;13.60;99.90
9383;DHT22;4731;49.708;10.816;2023-05-18T07:23:53;13.90;99.90
9383;DHT22;4731;49.708;10.816;2023-05-18T07:26:21;14.10;99.90
9383;DHT22;4731;49.708;10.816;2023-05-18T07:28:48;14.40;99.90
9383;DHT22;4731;49.708;10.816;2023-05-18T07:31:15;14.50;99.90
9383;DHT22;4731;49.708;10.816;2023-05-18T07:33:43;14.60;99.90
9383;DHT22;4731;49.708;10.816;2023-05-18T07:36:10;14.80;99.90
9383;DHT22;4731;49.708;10.816;2023-05-18T07:38:36;14.60;99.90
9383;DHT22;4731;49.708;10.816;2023-05-18T07:41:03;14.80;99.90
9383;DHT22;4731;49.708;10.816;2023-05-18T07:43:31;15.10;99.90
9383;DHT22;4731;49.708;10.816;2023-05-18T07:45:58;15.20;99.90
9383;DHT22;4731;49.708;10.816;2023-05-18T07:48:24;15.40;99.90
9383;DHT22;4731;49.708;10.816;2023-05-18T07:50:51;15.50;99.90
9383;DHT22;4731;49.708;10.816;2023-05-18T07:53:18;15.70;99.90
9383;DHT22;4731;49.708;10.816;2023-05-18T07:55:45;15.60;99.90
9383;DHT22;4731;49.708;10.816;2023-05-18T07:58:12;15.80;99.90
9383;DHT22;4731;49.708;10.816;2023-05-18T08:00:40;15.90;99.90
9383;DHT22;4731;49.708;10.816;2023-05-18T08:03:08;16.20;99.90
9383;DHT22;4731;49.708;10.816;2023-05-18T08:05:35;16.40;99.90
9383;DHT22;4731;49.708;10.816;2023-05-18T08:08:02;16.50;99.90
9383;DHT22;4731;49.708;10.816;2023-05-18T08:10:29;16.60;99.90
9383;DHT22;4731;49.708;10.816;2023-05-18T08:12:55;16.80;99.90
9383;DHT22;4731;49.708;10.816;2023-05-18T08:15:22;16.20;99.90
9383;DHT22;4731;49.708;10.816;2023-05-18T08:17:50;15.80;99.90
9383;DHT22;4731;49.708;10.816;2023-05-18T08:20:19;16.00;99.90
9383;DHT22;4731;49.708;10.816;2023-05-18T08:22:45;16.40;99.90
9383;DHT22;4731;49.708;10.816;2023-05-18T08:25:12;16.50;99.90
9383;DHT22;4731;49.708;10.816;2023-05-18T08:27:39;16.80;99.90
9383;DHT22;4731;49.708;10.816;2023-05-18T08:30:07;16.90;99.90
9383;DHT22;4731;49.708;10.816;2023-05-18T08:32:34;16.20;99.90
9383;DHT22;4731;49.708;10.816;2023-05-18T08:35:02;15.90;99.90
9383;DHT22;4731;49.708;10.816;2023-05-18T08:37:30;15.60;99.90
9383;DHT22;4731;49.708;10.816;2023-05-18T08:39:57;15.50;99.90
9383;DHT22;4731;49.708;10.816;2023-05-18T08:42:32;15.90;99.90
9383;DHT22;4731;49.708;10.816;2023-05-18T08:45:08;16.20;99.90
9383;DHT22;4731;49.708;10.816;2023-05-18T08:47:36;16.30;99.90
9383;DHT22;4731;49.708;10.816;2023-05-18T08:50:05;16.60;99.90
9383;DHT22;4731;49.708;10.816;2023-05-18T08:52:35;16.80;99.90
9383;DHT22;4731;49.708;10.816;2023-05-18T08:55:04;17.90;99.90
9383;DHT22;4731;49.708;10.816;2023-05-18T08:57:33;17.40;99.90
9383;DHT22;4731;49.708;10.816;2023-05-18T09:00:00;17.80;99.90
9383;DHT22;4731;49.708;10.816;2023-05-18T09:02:29;16.40;99.90
9383;DHT22;4731;49.708;10.816;2023-05-18T09:04:57;16.20;99.90
9383;DHT22;4731;49.708;10.816;2023-05-18T09:07:25;16.60;99.90
9383;DHT22;4731;49.708;10.816;2023-05-18T09:09:54;16.70;99.90
9383;DHT22;4731;49.708;10.816;2023-05-18T09:12:22;16.50;99.90
9383;DHT22;4731;49.708;10.816;2023-05-18T09:14:49;17.10;99.90
9383;DHT22;4731;49.708;10.816;2023-05-18T09:17:16;17.60;99.90
9383;DHT22;4731;49.708;10.816;2023-05-18T09:19:43;18.00;99.90
9383;DHT22;4731;49.708;10.816;2023-05-18T09:22:10;18.90;99.90
9383;DHT22;4731;49.708;10.816;2023-05-18T09:24:39;16.90;99.90
9383;DHT22;4731;49.708;10.816;2023-05-18T09:27:06;17.30;99.90
9383;DHT22;4731;49.708;10.816;2023-05-18T09:29:33;20.00;99.90
9383;DHT22;4731;49.708;10.816;2023-05-18T09:32:01;18.40;99.90
9383;DHT22;4731;49.708;10.816;2023-05-18T09:34:38;18.90;99.90
9383;DHT22;4731;49.708;10.816;2023-05-18T09:37:05;21.80;99.90
9383;DHT22;4731;49.708;10.816;2023-05-18T09:39:31;22.10;99.90
9383;DHT22;4731;49.708;10.816;2023-05-18T09:42:01;22.10;99.90
9383;DHT22;4731;49.708;10.816;2023-05-18T09:44:30;20.20;99.90
9383;DHT22;4731;49.708;10.816;2023-05-18T09:46:57;20.30;99.90
9383;DHT22;4731;49.708;10.816;2023-05-18T09:49:24;20.80;99.90
9383;DHT22;4731;49.708;10.816;2023-05-18T09:51:50;20.80;99.90
9383;DHT22;4731;49.708;10.816;2023-05-18T09:54:18;20.90;99.90
9383;DHT22;4731;49.708;10.816;2023-05-18T09:56:44;20.90;99.90
9383;DHT22;4731;49.708;10.816;2023-05-18T09:59:14;22.20;99.90
9383;DHT22;4731;49.708;10.816;2023-05-18T10:01:55;19.90;99.90
9383;DHT22;4731;49.708;10.816;2023-05-18T10:04:21;19.70;99.90
9383;DHT22;4731;49.708;10.816;2023-05-18T10:06:48;20.80;99.90
9383;DHT22;4731;49.708;10.816;2023-05-18T10:09:16;19.80;99.90
9383;DHT22;4731;49.708;10.816;2023-05-18T10:11:43;19.70;99.90
9383;DHT22;4731;49.708;10.816;2023-05-18T10:14:10;19.50;99.90
9383;DHT22;4731;49.708;10.816;2023-05-18T10:16:39;20.40;99.90
9383;DHT22;4731;49.708;10.816;2023-05-18T10:19:07;18.90;99.90
9383;DHT22;4731;49.708;10.816;2023-05-18T10:21:37;19.60;99.90
9383;DHT22;4731;49.708;10.816;2023-05-18T10:24:04;20.60;99.90
9383;DHT22;4731;49.708;10.816;2023-05-18T10:26:34;21.20;99.90
9383;DHT22;4731;49.708;10.816;2023-05-18T10:29:03;20.70;99.90
9383;DHT22;4731;49.708;10.816;2023-05-18T10:31:30;20.20;99.90
9383;DHT22;4731;49.708;10.816;2023-05-18T10:33:59;20.50;99.90
9383;DHT22;4731;49.708;10.816;2023-05-18T10:36:26;20.60;99.90
9383;DHT22;4731;49.708;10.816;2023-05-18T10:38:56;20.80;99.90
9383;DHT22;4731;49.708;10.816;2023-05-18T10:41:25;20.50;99.90
9383;DHT22;4731;49.708;10.816;2023-05-18T10:43:53;21.10;99.90
9383;DHT22;4731;49.708;10.816;2023-05-18T10:46:26;21.60;99.90
9383;DHT22;4731;49.708;10.816;2023-05-18T10:48:54;22.90;99.70
9383;DHT22;4731;49.708;10.816;2023-05-18T10:51:25;19.60;99.90
9383;DHT22;4731;49.708;10.816;2023-05-18T10:53:52;20.40;99.90
9383;DHT22;4731;49.708;10.816;2023-05-18T10:56:19;20.40;99.90
9383;DHT22;4731;49.708;10.816;2023-05-18T10:58:46;19.40;99.90
9383;DHT22;4731;49.708;10.816;2023-05-18T11:01:14;20.20;99.90
9383;DHT22;4731;49.708;10.816;2023-05-18T11:03:41;21.20;99.90
9383;DHT22;4731;49.708;10.816;2023-05-18T11:06:09;21.70;99.90
9383;DHT22;4731;49.708;10.816;2023-05-18T11:08:44;22.20;99.30
9383;DHT22;4731;49.708;10.816;2023-05-18T11:11:11;22.60;99.10
9383;DHT22;4731;49.708;10.816;2023-05-18T11:13:43;22.70;99.10
9383;DHT22;4731;49.708;10.816;2023-05-18T11:16:10;23.20;99.00
9383;DHT22;4731;49.708;10.816;2023-05-18T11:18:40;21.40;94.80
9383;DHT22;4731;49.708;10.816;2023-05-18T11:21:21;20.40;97.70
9383;DHT22;4731;49.708;10.816;2023-05-18T11:24:13;22.80;97.60
9383;DHT22;4731;49.708;10.816;2023-05-18T11:26:41;20.40;97.60
9383;DHT22;4731;49.708;10.816;2023-05-18T11:29:30;23.00;98.40
9383;DHT22;4731;49.708;10.816;2023-05-18T11:31:57;21.30;96.80
9383;DHT22;4731;49.708;10.816;2023-05-18T11:34:44;22.10;99.80
9383;DHT22;4731;49.708;10.816;2023-05-18T11:37:13;22.80;98.40
9383;DHT22;4731;49.708;10.816;2023-05-18T11:39:52;22.70;96.20
9383;DHT22;4731;49.708;10.816;2023-05-18T11:42:19;22.90;96.50
9383;DHT22;4731;49.708;10.816;2023-05-18T11:44:51;23.80;97.50
9383;DHT22;4731;49.708;10.816;2023-05-18T11:47:18;21.70;95.80
9383;DHT22;4731;49.708;10.816;2023-05-18T11:49:46;22.20;97.00
9383;DHT22;4731;49.708;10.816;2023-05-18T11:52:16;22.50;98.00
9383;DHT22;4731;49.708;10.816;2023-05-18T11:54:48;22.60;95.60
9383;DHT22;4731;49.708;10.816;2023-05-18T11:57:17;22.70;96.60
9383;DHT22;4731;49.708;10.816;2023-05-18T11:59:45;22.60;96.20
9383;DHT22;4731;49.708;10.816;2023-05-18T12:02:18;22.30;95.70
9383;DHT22;4731;49.708;10.816;2023-05-18T12:04:46;20.50;94.40
9383;DHT22;4731;49.708;10.816;2023-05-18T12:07:16;20.50;97.10
9383;DHT22;4731;49.708;10.816;2023-05-18T12:09:46;21.20;97.20
9383;DHT22;4731;49.708;10.816;2023-05-18T12:12:15;23.20;96.70
9383;DHT22;4731;49.708;10.816;2023-05-18T12:14:48;20.80;94.70
9383;DHT22;4731;49.708;10.816;2023-05-18T12:17:18;20.60;94.80
9383;DHT22;4731;49.708;10.816;2023-05-18T12:19:46;20.70;96.40
9383;DHT22;4731;49.708;10.816;2023-05-18T12:22:13;20.80;98.60
9383;DHT22;4731;49.708;10.816;2023-05-18T12:24:41;20.60;96.50
9383;DHT22;4731;49.708;10.816;2023-05-18T12:27:11;20.20;98.90
9383;DHT22;4731;49.708;10.816;2023-05-18T12:29:38;20.00;96.20
9383;DHT22;4731;49.708;10.816;2023-05-18T12:32:07;19.60;97.20
9383;DHT22;4731;49.708;10.816;2023-05-18T12:34:34;19.90;98.00
9383;DHT22;4731;49.708;10.816;2023-05-18T12:37:01;20.20;98.10
9383;DHT22;4731;49.708;10.816;2023-05-18T12:39:28;20.90;99.90
9383;DHT22;4731;49.708;10.816;2023-05-18T12:42:08;21.50;99.30
9383;DHT22;4731;49.708;10.816;2023-05-18T12:44:36;21.90;99.10
9383;DHT22;4731;49.708;10.816;2023-05-18T12:47:04;21.60;95.90
9383;DHT22;4731;49.708;10.816;2023-05-18T12:49:35;21.60;96.60
9383;DHT22;4731;49.708;10.816;2023-05-18T12:52:10;21.20;96.20
9383;DHT22;4731;49.708;10.816;2023-05-18T12:54:47;21.10;96.60
9383;DHT22;4731;49.708;10.816;2023-05-18T12:57:19;21.40;97.90
9383;DHT22;4731;49.708;10.816;2023-05-18T12:59:51;23.10;98.00
9383;DHT22;4731;49.708;10.816;2023-05-18T13:02:30;21.60;95.60
9383;DHT22;4731;49.708;10.816;2023-05-18T13:05:04;21.90;96.00
9383;DHT22;4731;49.708;10.816;2023-05-18T13:07:33;21.40;95.20
9383;DHT22;4731;49.708;10.816;2023-05-18T13:10:01;21.40;95.50
9383;DHT22;4731;49.708;10.816;2023-05-18T13:12:39;21.50;96.80
9383;DHT22;4731;49.708;10.816;2023-05-18T13:15:13;21.80;98.20
9383;DHT22;4731;49.708;10.816;2023-05-18T13:17:47;22.00;96.70
9383;DHT22;4731;49.708;10.816;2023-05-18T13:20:15;21.70;95.60
9383;DHT22;4731;49.708;10.816;2023-05-18T13:22:42;21.20;96.20
9383;DHT22;4731;49.708;10.816;2023-05-18T13:25:09;21.40;96.60
9383;DHT22;4731;49.708;10.816;2023-05-18T13:27:37;21.20;93.60
9383;DHT22;4731;49.708;10.816;2023-05-18T13:30:05;21.20;94.40
9383;DHT22;4731;49.708;10.816;2023-05-18T13:32:33;21.00;95.60
9383;DHT22;4731;49.708;10.816;2023-05-18T13:35:00;21.20;95.10
9383;DHT22;4731;49.708;10.816;2023-05-18T13:37:27;21.10;93.80
9383;DHT22;4731;49.708;10.816;2023-05-18T13:39:53;20.00;95.10
9383;DHT22;4731;49.708;10.816;2023-05-18T13:42:20;19.30;95.80
9383;DHT22;4731;49.708;10.816;2023-05-18T13:44:47;18.70;96.70
9383;DHT22;4731;49.708;10.816;2023-05-18T13:47:13;18.50;97.00
9383;DHT22;4731;49.708;10.816;2023-05-18T13:49:41;19.00;98.40
9383;DHT22;4731;49.708;10.816;2023-05-18T13:52:08;19.60;99.90
9383;DHT22;4731;49.708;10.816;2023-05-18T13:54:35;20.20;97.60
9383;DHT22;4731;49.708;10.816;2023-05-18T13:57:02;20.30;97.40
9383;DHT22;4731;49.708;10.816;2023-05-18T13:59:29;19.90;95.30
9383;DHT22;4731;49.708;10.816;2023-05-18T14:01:58;19.80;98.10
9383;DHT22;4731;49.708;10.816;2023-05-18T14:04:25;21.50;98.40
9383;DHT22;4731;49.708;10.816;2023-05-18T14:06:53;19.60;96.50
9383;DHT22;4731;49.708;10.816;2023-05-18T14:09:20;19.50;94.80
9383;DHT22;4731;49.708;10.816;2023-05-18T14:11:46;19.50;96.60
9383;DHT22;4731;49.708;10.816;2023-05-18T14:14:13;20.90;98.20
9383;DHT22;4731;49.708;10.816;2023-05-18T14:16:40;21.30;98.20
9383;DHT22;4731;49.708;10.816;2023-05-18T14:19:06;19.70;97.50
9383;DHT22;4731;49.708;10.816;2023-05-18T14:21:33;21.10;98.50
9383;DHT22;4731;49.708;10.816;2023-05-18T14:24:01;19.90;97.30
9383;DHT22;4731;49.708;10.816;2023-05-18T14:26:31;22.00;98.70
9383;DHT22;4731;49.708;10.816;2023-05-18T14:28:58;19.60;95.90
9383;DHT22;4731;49.708;10.816;2023-05-18T14:31:25;19.20;94.40
9383;DHT22;4731;49.708;10.816;2023-05-18T14:33:51;18.70;95.50
9383;DHT22;4731;49.708;10.816;2023-05-18T14:36:18;18.10;96.60
9383;DHT22;4731;49.708;10.816;2023-05-18T14:38:45;17.80;98.30
9383;DHT22;4731;49.708;10.816;2023-05-18T14:41:13;18.20;98.90
9383;DHT22;4731;49.708;10.816;2023-05-18T14:43:40;21.30;98.40
9383;DHT22;4731;49.708;10.816;2023-05-18T14:46:07;20.50;96.30
9383;DHT22;4731;49.708;10.816;2023-05-18T14:48:34;20.80;98.00
9383;DHT22;4731;49.708;10.816;2023-05-18T14:51:00;18.60;99.90
9383;DHT22;4731;49.708;10.816;2023-05-18T14:53:27;18.70;99.90
9383;DHT22;4731;49.708;10.816;2023-05-18T14:55:54;18.70;99.90
9383;DHT22;4731;49.708;10.816;2023-05-18T14:58:22;18.60;99.90
9383;DHT22;4731;49.708;10.816;2023-05-18T15:00:49;18.50;99.90
9383;DHT22;4731;49.708;10.816;2023-05-18T15:03:15;18.40;99.90
9383;DHT22;4731;49.708;10.816;2023-05-18T15:05:42;18.30;99.90
9383;DHT22;4731;49.708;10.816;2023-05-18T15:08:10;18.30;99.90
9383;DHT22;4731;49.708;10.816;2023-05-18T15:10:36;18.00;99.90
9383;DHT22;4731;49.708;10.816;2023-05-18T15:13:03;18.00;99.90
9383;DHT22;4731;49.708;10.816;2023-05-18T15:15:31;18.30;99.90
9383;DHT22;4731;49.708;10.816;2023-05-18T15:17:58;18.50;99.90
9383;DHT22;4731;49.708;10.816;2023-05-18T15:20:25;20.60;99.90
9383;DHT22;4731;49.708;10.816;2023-05-18T15:22:51;18.70;99.90
9383;DHT22;4731;49.708;10.816;2023-05-18T15:25:18;18.50;99.90
9383;DHT22;4731;49.708;10.816;2023-05-18T15:27:45;18.60;99.90
9383;DHT22;4731;49.708;10.816;2023-05-18T15:30:13;18.70;99.90
9383;DHT22;4731;49.708;10.816;2023-05-18T15:32:41;18.70;99.90
9383;DHT22;4731;49.708;10.816;2023-05-18T15:35:08;18.70;99.90
9383;DHT22;4731;49.708;10.816;2023-05-18T15:37:35;18.70;99.90
9383;DHT22;4731;49.708;10.816;2023-05-18T15:40:02;20.30;99.90
9383;DHT22;4731;49.708;10.816;2023-05-18T15:42:29;18.60;99.90
9383;DHT22;4731;49.708;10.816;2023-05-18T15:44:57;18.60;99.90
9383;DHT22;4731;49.708;10.816;2023-05-18T15:47:23;18.60;99.90
9383;DHT22;4731;49.708;10.816;2023-05-18T15:49:51;19.40;99.90
9383;DHT22;4731;49.708;10.816;2023-05-18T15:52:18;18.70;99.90
9383;DHT22;4731;49.708;10.816;2023-05-18T15:54:45;21.20;99.90
9383;DHT22;4731;49.708;10.816;2023-05-18T15:57:11;19.60;99.90